createdAt,value
2023-01-31T00:02:05.438Z,1.85
2023-01-31T00:05:20.172Z,1.79
2023-01-31T00:08:32.560Z,1.83
2023-01-31T00:11:44.993Z,1.82
2023-01-31T00:14:58.897Z,1.81
2023-01-31T00:18:11.337Z,1.81
2023-01-31T00:21:27.018Z,1.81
2023-01-31T00:24:39.088Z,1.77
2023-01-31T00:27:51.238Z,1.74
2023-01-31T00:31:05.740Z,1.68
2023-01-31T00:34:18.931Z,1.64
2023-01-31T00:37:31.141Z,1.58
2023-01-31T00:40:43.617Z,1.52
2023-01-31T00:43:59.674Z,1.52
2023-01-31T00:47:11.901Z,1.51
2023-01-31T00:50:25.701Z,1.49
2023-01-31T00:53:39.840Z,1.51
2023-01-31T00:56:51.845Z,1.49
2023-01-31T01:00:04.050Z,1.53
2023-01-31T01:03:16.667Z,1.54
2023-01-31T01:06:30.541Z,1.54
2023-01-31T01:09:42.530Z,1.56
2023-01-31T01:12:54.607Z,1.56
2023-01-31T01:16:13.034Z,1.49
2023-01-31T01:19:26.323Z,1.41
2023-01-31T01:22:39.682Z,1.33
2023-01-31T01:25:52.660Z,1.33
2023-01-31T01:29:08.067Z,1.35
2023-01-31T01:32:20.399Z,1.35
2023-01-31T01:35:33.005Z,1.39
2023-01-31T01:38:46.402Z,1.43
2023-01-31T01:41:58.462Z,1.46
2023-01-31T01:45:21.308Z,1.43
2023-01-31T01:48:35.069Z,1.44
2023-01-31T01:51:49.057Z,1.45
2023-01-31T01:55:06.801Z,1.49
2023-01-31T01:58:23.840Z,1.45
2023-01-31T02:01:36.258Z,1.49
2023-01-31T02:04:53.439Z,1.51
2023-01-31T02:08:07.282Z,1.53
2023-01-31T02:11:25.747Z,1.56
2023-01-31T02:14:38.014Z,1.55
2023-01-31T02:17:50.298Z,1.47
2023-01-31T02:21:58.615Z,1.58
2023-01-31T02:25:57.989Z,1.63
2023-01-31T02:29:42.185Z,1.64
2023-01-31T02:33:05.113Z,1.66
2023-01-31T02:36:26.835Z,1.68
2023-01-31T02:39:45.593Z,1.73
2023-01-31T02:43:05.789Z,1.75
2023-01-31T02:46:22.194Z,1.78
2023-01-31T02:49:41.137Z,1.79
2023-01-31T02:53:03.370Z,1.80
2023-01-31T02:56:25.144Z,1.82
2023-01-31T02:59:39.078Z,1.85
2023-01-31T03:02:51.108Z,1.86
2023-01-31T03:06:48.673Z,1.88
2023-01-31T03:10:09.012Z,1.92
2023-01-31T03:13:42.668Z,1.94
2023-01-31T03:17:13.952Z,1.98
2023-01-31T03:20:32.013Z,1.99
2023-01-31T03:23:45.287Z,2.04
2023-01-31T03:26:57.702Z,2.07
2023-01-31T03:30:18.546Z,2.09
2023-01-31T03:33:35.432Z,2.11
2023-01-31T03:36:55.003Z,2.10
2023-01-31T03:40:30.766Z,2.13
2023-01-31T03:43:48.508Z,2.15
2023-01-31T03:47:06.061Z,2.15
2023-01-31T03:50:24.509Z,2.15
2023-01-31T03:53:43.162Z,2.16
2023-01-31T03:57:00.993Z,2.14
2023-01-31T04:00:19.901Z,2.13
2023-01-31T04:03:39.730Z,2.15
2023-01-31T04:06:52.473Z,2.11
2023-01-31T04:10:05.648Z,2.12
2023-01-31T04:13:17.944Z,2.12
2023-01-31T04:16:29.994Z,2.12
2023-01-31T04:19:41.891Z,2.09
2023-01-31T04:22:53.898Z,2.11
2023-01-31T04:26:06.094Z,2.10
2023-01-31T04:29:18.231Z,2.08
2023-01-31T04:32:30.142Z,2.08
2023-01-31T04:35:42.304Z,2.05
2023-01-31T04:38:54.203Z,2.03
2023-01-31T04:42:05.985Z,1.98
2023-01-31T04:45:19.646Z,1.96
2023-01-31T04:48:31.875Z,1.92
2023-01-31T04:51:44.048Z,1.89
2023-01-31T04:54:56.054Z,1.84
2023-01-31T04:58:08.785Z,1.82
2023-01-31T05:01:20.790Z,1.81
2023-01-31T05:04:32.846Z,1.80
2023-01-31T05:07:45.839Z,1.77
2023-01-31T05:11:05.857Z,1.76
2023-01-31T05:14:18.552Z,1.74
2023-01-31T05:17:31.527Z,1.71
2023-01-31T05:20:45.107Z,1.71
2023-01-31T05:23:57.490Z,1.68
2023-01-31T05:27:09.918Z,1.67
2023-01-31T05:30:24.276Z,1.64
2023-01-31T05:33:36.575Z,1.58
2023-01-31T05:36:49.212Z,1.58
2023-01-31T05:40:01.211Z,1.55
2023-01-31T05:43:13.316Z,1.57
2023-01-31T05:46:25.527Z,1.57
2023-01-31T05:49:37.606Z,1.58
2023-01-31T05:52:50.128Z,1.62
2023-01-31T05:56:02.592Z,1.64
2023-01-31T05:59:15.274Z,1.64
2023-01-31T06:02:27.228Z,1.66
2023-01-31T06:05:40.594Z,1.68
2023-01-31T06:08:52.746Z,1.69
2023-01-31T06:12:05.096Z,1.71
2023-01-31T06:15:19.037Z,1.73
2023-01-31T06:18:31.878Z,1.74
2023-01-31T06:21:44.448Z,1.76
2023-01-31T06:24:56.434Z,1.77
2023-01-31T06:28:08.864Z,1.78
2023-01-31T06:31:21.122Z,1.79
2023-01-31T06:34:33.550Z,1.82
2023-01-31T06:37:45.718Z,1.80
2023-01-31T06:40:57.889Z,1.80
2023-01-31T06:44:10.200Z,1.76
2023-01-31T06:47:22.267Z,1.75
2023-01-31T06:50:34.556Z,1.71
2023-01-31T06:53:46.506Z,1.70
2023-01-31T06:56:58.520Z,1.70
2023-01-31T07:00:13.523Z,1.69
2023-01-31T07:03:25.497Z,1.69
2023-01-31T07:06:37.535Z,1.70
2023-01-31T07:09:49.634Z,1.72
2023-01-31T07:13:02.185Z,1.69
2023-01-31T07:16:17.030Z,1.73
2023-01-31T07:19:29.213Z,1.76
2023-01-31T07:22:41.421Z,1.79
2023-01-31T07:25:53.579Z,1.79
2023-01-31T07:29:05.648Z,1.80
2023-01-31T07:32:18.057Z,1.83
2023-01-31T07:35:30.189Z,1.85
2023-01-31T07:38:42.351Z,1.83
2023-01-31T07:41:54.451Z,1.83
2023-01-31T07:45:22.436Z,1.83
2023-01-31T07:48:24.000Z,1.84
2023-01-31T07:51:36.115Z,1.83
2023-01-31T07:54:47.932Z,1.83
2023-01-31T07:57:59.827Z,1.84
2023-01-31T08:01:26.854Z,1.83
2023-01-31T08:04:37.866Z,1.83
2023-01-31T08:07:52.366Z,1.90
2023-01-31T08:11:05.295Z,1.93
2023-01-31T08:14:17.374Z,1.91
2023-01-31T08:17:29.541Z,1.99
2023-01-31T08:20:42.051Z,2.00
2023-01-31T08:23:55.445Z,2.02
2023-01-31T08:27:07.834Z,2.05
2023-01-31T08:30:22.059Z,2.06
2023-01-31T08:33:34.234Z,2.11
2023-01-31T08:36:46.732Z,2.06
2023-01-31T08:39:58.703Z,2.09
2023-01-31T08:43:10.536Z,2.06
2023-01-31T08:46:23.019Z,2.11
2023-01-31T08:49:37.167Z,2.15
2023-01-31T08:52:49.149Z,2.18
2023-01-31T08:56:07.795Z,2.22
2023-01-31T08:59:20.419Z,2.32
2023-01-31T09:02:32.594Z,2.35
2023-01-31T09:05:44.766Z,2.40
2023-01-31T09:08:57.217Z,2.45
2023-01-31T09:12:11.771Z,2.53
2023-01-31T09:15:24.457Z,2.41
2023-01-31T09:18:36.937Z,2.55
2023-01-31T09:21:49.128Z,2.62
2023-01-31T09:25:01.081Z,2.61
2023-01-31T09:28:13.223Z,2.53
2023-01-31T09:31:26.596Z,2.53
2023-01-31T09:34:39.017Z,2.52
2023-01-31T09:37:50.962Z,2.61
2023-01-31T09:41:07.365Z,2.67
2023-01-31T09:44:24.080Z,2.58
2023-01-31T09:47:40.989Z,2.55
2023-01-31T09:50:58.730Z,2.55
2023-01-31T09:54:17.273Z,2.56
2023-01-31T09:57:40.329Z,2.58
2023-01-31T10:00:59.033Z,2.65
2023-01-31T10:04:33.427Z,2.61
2023-01-31T10:07:52.810Z,2.53
2023-01-31T10:11:11.560Z,2.47
2023-01-31T10:14:34.427Z,2.45
2023-01-31T10:17:53.139Z,2.40
2023-01-31T10:21:11.052Z,2.43
2023-01-31T10:24:29.203Z,2.50
2023-01-31T10:27:50.692Z,2.58
2023-01-31T10:31:09.789Z,2.61
2023-01-31T10:34:26.102Z,2.68
2023-01-31T10:37:45.988Z,2.71
2023-01-31T10:41:03.318Z,2.61
2023-01-31T10:44:25.559Z,2.64
2023-01-31T10:47:41.282Z,2.73
2023-01-31T10:51:05.239Z,2.80
2023-01-31T10:54:29.906Z,2.68
2023-01-31T10:57:42.158Z,2.70
2023-01-31T11:00:55.241Z,2.55
2023-01-31T11:04:13.752Z,2.62
2023-01-31T11:07:26.640Z,2.65
2023-01-31T11:10:40.443Z,2.70
2023-01-31T11:14:05.395Z,2.77
2023-01-31T11:17:25.236Z,2.73
2023-01-31T11:20:40.815Z,2.84
2023-01-31T11:23:53.140Z,2.86
2023-01-31T11:27:10.661Z,2.86
2023-01-31T11:30:36.225Z,2.88
2023-01-31T11:33:53.315Z,2.91
2023-01-31T11:37:11.470Z,2.84
2023-01-31T11:40:34.842Z,2.85
2023-01-31T11:43:49.285Z,2.93
2023-01-31T11:47:05.304Z,2.75
2023-01-31T11:50:28.953Z,2.67
2023-01-31T11:53:47.236Z,2.64
2023-01-31T11:57:00.428Z,2.71
2023-01-31T12:00:26.546Z,2.79
2023-01-31T12:03:51.809Z,2.90
2023-01-31T12:07:08.285Z,2.91
2023-01-31T12:10:47.150Z,2.84
2023-01-31T12:14:06.817Z,2.71
2023-01-31T12:17:22.378Z,2.87
2023-01-31T12:20:44.724Z,2.80
2023-01-31T12:24:04.913Z,2.82
2023-01-31T12:27:30.263Z,2.76
2023-01-31T12:31:21.589Z,2.79
2023-01-31T12:34:59.453Z,2.78
2023-01-31T12:38:11.976Z,2.83
2023-01-31T12:41:36.077Z,2.80
2023-01-31T12:44:55.369Z,2.83
2023-01-31T12:48:36.948Z,2.91
2023-01-31T12:51:55.789Z,3.01
2023-01-31T12:55:21.036Z,2.98
2023-01-31T12:58:49.635Z,2.96
2023-01-31T13:02:07.170Z,3.13
2023-01-31T13:05:30.812Z,3.17
2023-01-31T13:08:57.066Z,3.41
2023-01-31T13:12:07.116Z,3.34
2023-01-31T13:15:25.853Z,3.21
2023-01-31T13:18:40.901Z,3.31
2023-01-31T13:21:58.853Z,3.47
2023-01-31T13:25:19.488Z,3.33
2023-01-31T13:28:36.563Z,3.31
2023-01-31T13:31:55.157Z,3.18
2023-01-31T13:35:14.138Z,3.18
2023-01-31T13:38:28.262Z,3.13
2023-01-31T13:41:41.295Z,3.10
2023-01-31T13:44:55.002Z,3.04
2023-01-31T13:48:12.560Z,2.81
2023-01-31T13:51:29.467Z,2.90
2023-01-31T13:54:45.803Z,2.83
2023-01-31T13:58:06.713Z,2.90
2023-01-31T14:01:26.310Z,2.75
2023-01-31T14:04:43.666Z,2.70
2023-01-31T14:08:20.478Z,2.67
2023-01-31T14:11:48.913Z,2.62
2023-01-31T14:15:03.861Z,2.58
2023-01-31T14:18:16.659Z,2.62
2023-01-31T14:22:03.486Z,2.67
2023-01-31T14:25:21.351Z,2.67
2023-01-31T14:28:36.009Z,2.63
2023-01-31T14:31:48.923Z,2.61
2023-01-31T14:35:02.751Z,2.59
2023-01-31T14:38:21.731Z,2.57
2023-01-31T14:41:40.854Z,2.57
2023-01-31T14:45:05.268Z,2.56
2023-01-31T14:48:38.599Z,2.48
2023-01-31T14:52:06.895Z,2.51
2023-01-31T14:55:41.275Z,2.51
2023-01-31T14:58:54.621Z,2.47
2023-01-31T15:02:22.502Z,2.47
2023-01-31T15:05:51.713Z,2.50
2023-01-31T15:09:41.794Z,2.47
2023-01-31T15:13:05.084Z,2.40
2023-01-31T15:16:26.739Z,2.36
2023-01-31T15:19:47.506Z,2.29
2023-01-31T15:23:07.203Z,2.25
2023-01-31T15:29:28.789Z,2.12
2023-01-31T15:32:45.974Z,2.06
2023-01-31T15:36:04.183Z,2.03
2023-01-31T15:39:27.381Z,1.97
2023-01-31T15:42:40.498Z,1.92
2023-01-31T15:45:53.159Z,1.93
2023-01-31T15:49:06.570Z,1.88
2023-01-31T15:52:24.643Z,1.85
2023-01-31T15:55:38.720Z,1.89
2023-01-31T15:58:55.468Z,1.87
2023-01-31T16:02:16.379Z,1.82
2023-01-31T16:05:31.578Z,1.76
2023-01-31T16:08:45.092Z,1.70
2023-01-31T16:11:57.784Z,1.72
2023-01-31T16:15:21.026Z,1.72
2023-01-31T16:18:33.733Z,1.75
2023-01-31T16:21:49.370Z,1.78
2023-01-31T16:25:04.253Z,1.82
2023-01-31T16:28:19.593Z,1.78
2023-01-31T16:31:36.958Z,1.71
2023-01-31T16:34:49.869Z,1.66
2023-01-31T16:38:11.898Z,1.60
2023-01-31T16:41:30.225Z,1.58
2023-01-31T16:44:46.875Z,1.56
2023-01-31T16:47:59.387Z,1.49
2023-01-31T16:51:46.097Z,1.47
2023-01-31T16:55:02.708Z,1.47
2023-01-31T16:58:18.194Z,1.45
2023-01-31T17:01:34.837Z,1.45
2023-01-31T17:04:48.365Z,1.38
2023-01-31T17:08:01.704Z,1.40
2023-01-31T17:11:23.582Z,1.43
2023-01-31T17:14:32.976Z,1.38
2023-01-31T17:17:45.581Z,1.36
2023-01-31T17:20:57.973Z,1.36
2023-01-31T17:24:13.808Z,1.30
2023-01-31T17:27:27.442Z,1.30
2023-01-31T17:30:40.906Z,1.30
2023-01-31T17:33:53.890Z,1.34
2023-01-31T17:37:06.391Z,1.32
2023-01-31T17:40:19.878Z,1.34
2023-01-31T17:43:32.143Z,1.36
2023-01-31T17:46:44.424Z,1.41
2023-01-31T17:49:57.500Z,1.43
2023-01-31T17:53:09.587Z,1.44
2023-01-31T17:56:21.975Z,1.45
2023-01-31T17:59:35.901Z,1.48
2023-01-31T18:02:48.579Z,1.52
2023-01-31T18:06:08.262Z,1.59
2023-01-31T18:09:21.265Z,1.65
2023-01-31T18:12:35.511Z,1.66
2023-01-31T18:15:48.793Z,1.68
2023-01-31T18:19:01.331Z,1.68
2023-01-31T18:22:14.278Z,1.67
2023-01-31T18:25:26.596Z,1.69
2023-01-31T18:28:39.594Z,1.69
2023-01-31T18:31:51.988Z,1.71
2023-01-31T18:42:27.990Z,1.75
2023-01-31T18:45:40.353Z,1.80
2023-01-31T18:48:53.146Z,1.83
2023-01-31T18:52:06.491Z,1.83
2023-01-31T18:59:00.308Z,1.84
2023-01-31T19:06:47.572Z,1.82
2023-01-31T19:10:00.193Z,1.83
2023-01-31T19:13:20.362Z,1.77
2023-01-31T19:16:34.484Z,1.80
2023-01-31T19:27:16.473Z,1.79
2023-01-31T19:30:29.207Z,1.82
2023-01-31T19:33:41.597Z,1.81
2023-01-31T19:36:54.140Z,1.83
2023-01-31T19:40:06.647Z,1.85
2023-01-31T19:43:18.860Z,1.87
2023-01-31T19:46:37.206Z,1.87
2023-01-31T19:49:49.599Z,1.90
2023-01-31T19:53:02.316Z,1.92
2023-01-31T19:56:16.369Z,1.95
2023-01-31T19:59:28.987Z,1.99
2023-01-31T20:02:46.004Z,2.04
2023-01-31T20:05:58.577Z,2.07
2023-01-31T20:09:14.540Z,2.09
2023-01-31T20:19:50.625Z,2.21
2023-01-31T20:26:43.479Z,2.24
2023-01-31T20:29:55.699Z,2.25
2023-01-31T20:33:18.898Z,2.27
2023-01-31T20:36:32.010Z,2.31
2023-01-31T20:39:45.140Z,2.37
2023-01-31T20:42:57.957Z,2.42
2023-01-31T20:46:32.273Z,2.46
2023-01-31T20:53:28.795Z,2.53
2023-01-31T20:56:52.126Z,2.56
2023-01-31T21:11:25.205Z,2.70
2023-01-31T21:18:25.648Z,2.65
2023-01-31T21:21:48.056Z,2.64
2023-01-31T21:25:00.291Z,2.71
2023-01-31T21:48:07.107Z,2.73
2023-01-31T22:05:18.785Z,2.78
2023-01-31T22:19:43.162Z,2.80
2023-01-31T22:34:34.362Z,2.89
2023-01-31T22:52:34.890Z,3.00
